Time;durP1;ratioP1;P1;durP2;ratioP2;P2;SDS_P1;SDS_P2;PMS_P1;PMS_P2;Temp;Humidity;BMP_temperature;BMP_pressure;BME280_temperature;BME280_humidity;BME280_pressure;Samples;Min_cycle;Max_cycle;Signal;HPM_P1;HPM_P2
2022/03/01 00:01:39;;;;;;;3.60;3.17;;;;;;;4.80;56.08;95239.88;5072546;28;20178;-77
2022/03/01 00:04:06;;;;;;;3.43;3.13;;;;;;;4.95;56.18;95263.47;5072919;28;20673;-77
2022/03/01 00:06:33;;;;;;;3.30;3.00;;;;;;;4.86;56.00;95248.81;5072393;28;20312;-78
2022/03/01 00:09:00;;;;;;;3.67;3.37;;;;;;;4.90;55.90;95260.41;5072509;28;20214;-77
2022/03/01 00:11:27;;;;;;;3.63;3.00;;;;;;;4.89;56.13;95258.78;5072327;28;20291;-78
2022/03/01 00:13:54;;;;;;;4.03;3.13;;;;;;;4.86;56.21;95252.16;5072009;28;20190;-78
2022/03/01 00:16:21;;;;;;;3.57;3.00;;;;;;;4.71;56.11;95235.34;5071996;28;20195;-78
2022/03/01 00:18:50;;;;;;;3.63;3.33;;;;;;;4.61;56.38;95214.75;5072471;28;20293;-77
2022/03/01 00:21:17;;;;;;;4.43;3.40;;;;;;;4.68;56.50;95223.66;5071114;28;20201;-77
2022/03/01 00:23:43;;;;;;;4.63;3.80;;;;;;;4.76;56.42;95238.41;5072085;28;20194;-78
2022/03/01 00:26:10;;;;;;;5.80;3.50;;;;;;;4.77;56.46;95243.38;5071711;28;20209;-77
2022/03/01 00:28:37;;;;;;;3.70;3.23;;;;;;;4.75;56.48;95235.06;5072306;28;20305;-81
2022/03/01 00:31:04;;;;;;;3.77;3.47;;;;;;;4.71;56.52;95238.69;5072160;28;20190;-79
2022/03/01 00:33:31;;;;;;;3.73;3.43;;;;;;;4.70;56.74;95236.22;5071316;28;20189;-77
2022/03/01 00:36:00;;;;;;;4.27;3.87;;;;;;;4.67;56.48;95227.09;5072559;28;20186;-76
2022/03/01 00:38:27;;;;;;;4.67;3.73;;;;;;;4.64;56.77;95229.78;5053943;28;20663;-76
2022/03/01 00:40:54;;;;;;;3.80;3.50;;;;;;;4.62;56.87;95228.25;5049607;28;20666;-77
2022/03/01 00:43:22;;;;;;;3.87;3.57;;;;;;;4.60;56.96;95227.53;5049144;28;20697;-77
2022/03/01 00:45:49;;;;;;;3.57;3.27;;;;;;;4.53;56.79;95224.53;5049096;28;20218;-77
2022/03/01 00:48:16;;;;;;;3.97;3.47;;;;;;;4.57;56.88;95225.97;5049235;28;20227;-76
2022/03/01 00:50:43;;;;;;;4.73;3.70;;;;;;;4.56;56.94;95218.47;5048903;28;20199;-77
2022/03/01 00:53:11;;;;;;;4.13;3.73;;;;;;;4.55;57.00;95216.84;5054852;28;20191;-75
2022/03/01 00:55:38;;;;;;;3.87;3.37;;;;;;;4.43;57.17;95205.69;5069009;28;20201;-76
2022/03/01 00:58:05;;;;;;;4.07;3.63;;;;;;;4.31;56.89;95183.59;5068651;28;20784;-76
2022/03/01 01:00:33;;;;;;;4.23;3.80;;;;;;;4.39;57.07;95207.59;5068528;28;20672;-74
2022/03/01 01:03:00;;;;;;;4.27;3.77;;;;;;;4.45;56.80;95214.03;5069097;28;20205;-74
2022/03/01 01:05:37;;;;;;;4.13;3.73;;;;;;;4.31;56.81;95192.00;5069384;28;20278;-76
2022/03/01 01:08:04;;;;;;;4.13;3.50;;;;;;;4.07;56.84;95152.94;5068655;28;20236;-75
2022/03/01 01:10:32;;;;;;;4.30;3.20;;;;;;;4.38;56.77;95217.81;5068625;28;20202;-78
2022/03/01 01:12:59;;;;;;;4.53;3.97;;;;;;;4.35;57.01;95213.72;5068318;28;20187;-76
2022/03/01 01:15:26;;;;;;;4.07;3.67;;;;;;;3.95;56.79;95154.44;5069109;28;20205;-75
2022/03/01 01:17:53;;;;;;;4.07;3.67;;;;;;;4.34;56.95;95216.34;5068440;28;20194;-76
2022/03/01 01:20:19;;;;;;;4.00;3.60;;;;;;;4.32;56.98;95215.59;5068848;28;20202;-76
2022/03/01 01:22:46;;;;;;;5.50;3.87;;;;;;;4.30;56.76;95213.19;5068483;28;20201;-76
2022/03/01 01:25:15;;;;;;;4.70;3.53;;;;;;;4.20;56.63;95199.41;5068199;28;20198;-76
2022/03/01 01:27:45;;;;;;;4.80;4.03;;;;;;;4.19;56.62;95200.34;5068800;28;20225;-77
2022/03/01 01:30:15;;;;;;;4.00;3.60;;;;;;;4.22;56.79;95208.53;5068322;28;20537;-76
2022/03/01 01:32:42;;;;;;;4.53;3.90;;;;;;;4.14;56.88;95192.16;5068430;28;20205;-76
2022/03/01 01:35:11;;;;;;;4.17;3.37;;;;;;;4.21;56.71;95204.38;5074384;28;20187;-76
2022/03/01 01:37:39;;;;;;;3.87;3.47;;;;;;;4.20;56.94;95202.75;5072299;28;20193;-76
2022/03/01 01:40:09;;;;;;;5.47;3.93;;;;;;;4.18;56.89;95191.91;5068451;28;20190;-77
2022/03/01 01:42:36;;;;;;;6.07;3.63;;;;;;;4.15;57.04;95194.63;5071116;28;20191;-75
2022/03/01 01:45:05;;;;;;;4.43;3.63;;;;;;;4.09;57.10;95182.28;5068213;28;20699;-75
2022/03/01 01:47:32;;;;;;;4.80;4.03;;;;;;;4.08;57.25;95185.72;5067932;28;20229;-76
2022/03/01 01:49:59;;;;;;;4.10;3.70;;;;;;;3.94;57.20;95160.41;5067713;28;20602;-76
2022/03/01 01:52:26;;;;;;;3.60;3.30;;;;;;;4.03;57.18;95180.94;5067833;28;20561;-76
2022/03/01 01:54:53;;;;;;;4.83;3.60;;;;;;;4.09;57.31;95186.53;5067643;28;20197;-75
2022/03/01 01:57:22;;;;;;;3.67;3.30;;;;;;;3.87;57.17;95151.50;5067398;28;20205;-75
2022/03/01 01:59:50;;;;;;;3.83;3.37;;;;;;;4.07;57.06;95186.66;5067812;28;20190;-73
2022/03/01 02:02:21;;;;;;;3.63;3.33;;;;;;;4.06;57.13;95184.19;5068400;28;20661;-76
2022/03/01 02:04:48;;;;;;;4.60;3.40;;;;;;;3.98;57.30;95175.31;5067825;28;20197;-76
2022/03/01 02:07:16;;;;;;;4.17;3.33;;;;;;;4.02;57.26;95178.50;5066996;28;20308;-77
2022/03/01 02:09:43;;;;;;;3.50;3.20;;;;;;;4.01;57.39;95177.66;5067668;28;20214;-75
2022/03/01 02:12:10;;;;;;;4.10;3.47;;;;;;;4.00;57.41;95170.97;5067742;28;20224;-76
2022/03/01 02:14:40;;;;;;;3.50;3.20;;;;;;;3.84;57.29;95152.50;5067337;28;20312;-75
2022/03/01 02:17:09;;;;;;;3.40;3.10;;;;;;;3.93;57.21;95156.22;5068440;28;20178;-74
2022/03/01 02:19:38;;;;;;;4.43;3.30;;;;;;;3.98;57.02;95170.25;5068072;28;20653;-77
2022/03/01 02:22:08;;;;;;;3.50;3.17;;;;;;;3.97;57.07;95162.72;5067732;28;20186;-76
2022/03/01 02:24:35;;;;;;;3.83;3.40;;;;;;;3.69;57.27;95112.88;5067480;28;20717;-74
2022/03/01 02:27:03;;;;;;;3.23;2.90;;;;;;;3.94;57.04;95142.69;5067302;28;20206;-75
2022/03/01 02:29:30;;;;;;;3.27;2.97;;;;;;;3.89;57.15;95137.06;5068050;28;20237;-77
2022/03/01 02:31:59;;;;;;;3.77;2.87;;;;;;;3.92;57.11;95145.28;5067726;28;20251;-75
2022/03/01 02:34:26;;;;;;;3.13;2.83;;;;;;;3.93;57.11;95143.56;5067413;28;20194;-76
2022/03/01 02:36:53;;;;;;;3.10;2.90;;;;;;;3.90;57.16;95139.50;5067566;28;20197;-74
2022/03/01 02:39:22;;;;;;;3.50;3.20;;;;;;;3.89;57.25;95147.19;5067535;28;20684;-76
2022/03/01 02:41:49;;;;;;;4.00;3.37;;;;;;;3.64;57.32;95104.75;5067385;28;20198;-75
2022/03/01 02:44:17;;;;;;;3.30;2.90;;;;;;;3.88;57.32;95150.59;5067268;28;20183;-75
2022/03/01 02:46:43;;;;;;;3.13;2.87;;;;;;;3.86;57.34;95142.31;5067465;28;20194;-76
2022/03/01 02:49:10;;;;;;;3.90;2.80;;;;;;;3.73;57.61;95134.59;5067456;28;20246;-76
2022/03/01 02:51:38;;;;;;;3.63;3.10;;;;;;;3.86;57.33;95158.28;5067250;28;21040;-77
2022/03/01 02:54:05;;;;;;;4.07;3.13;;;;;;;3.87;57.47;95149.78;5067771;28;20198;-77
2022/03/01 02:56:33;;;;;;;3.77;3.30;;;;;;;3.89;57.43;95149.72;5066774;28;20198;-77
2022/03/01 02:59:00;;;;;;;3.20;2.90;;;;;;;3.88;57.26;95146.34;5067251;28;20217;-77
2022/03/01 03:01:28;;;;;;;3.70;2.97;;;;;;;3.73;57.16;95130.34;5067360;28;20183;-77
2022/03/01 03:03:55;;;;;;;3.30;3.00;;;;;;;3.66;57.12;95118.91;5067335;28;20187;-75
2022/03/01 03:06:22;;;;;;;4.03;3.13;;;;;;;3.90;56.99;95156.41;5067140;28;20300;-75
2022/03/01 03:08:48;;;;;;;2.93;2.73;;;;;;;3.66;56.74;95116.38;5068143;28;20218;-77
2022/03/01 03:11:15;;;;;;;5.97;3.53;;;;;;;3.91;56.70;95153.78;5071172;28;20561;-75
2022/03/01 03:13:43;;;;;;;4.00;3.60;;;;;;;3.93;56.48;95152.00;5070758;28;20201;-78
2022/03/01 03:16:11;;;;;;;6.57;4.67;;;;;;;3.95;56.55;95156.97;5065142;28;20197;-76
2022/03/01 03:18:37;;;;;;;5.03;4.53;;;;;;;3.96;56.87;95153.53;5060114;28;20276;-76
2022/03/01 03:21:05;;;;;;;5.73;4.57;;;;;;;3.98;57.00;95155.06;5064820;28;20202;-75
2022/03/01 03:23:32;;;;;;;5.00;4.20;;;;;;;3.72;57.04;95117.78;5070884;28;20198;-75
2022/03/01 03:25:59;;;;;;;5.33;4.83;;;;;;;3.94;56.95;95147.75;5070478;28;20572;-74
2022/03/01 03:28:27;;;;;;;5.33;4.60;;;;;;;4.02;56.82;95158.25;5069979;28;20229;-75
2022/03/01 03:30:55;;;;;;;3.70;3.40;;;;;;;3.54;56.60;95084.22;5070790;28;20194;-75
2022/03/01 03:33:22;;;;;;;4.67;3.97;;;;;;;3.99;56.49;95155.88;5070432;28;20183;-75
2022/03/01 03:35:49;;;;;;;5.03;3.40;;;;;;;4.03;56.65;95157.34;5070822;28;20569;-76
2022/03/01 03:38:16;;;;;;;4.17;3.80;;;;;;;4.03;56.51;95158.16;5070635;28;20198;-76
2022/03/01 03:40:43;;;;;;;4.23;3.83;;;;;;;4.04;56.34;95164.03;5072995;28;20192;-76
2022/03/01 03:43:10;;;;;;;4.40;4.00;;;;;;;4.05;56.40;95159.78;5073052;28;20194;-75
2022/03/01 03:45:37;;;;;;;4.40;4.00;;;;;;;4.05;56.34;95167.38;5072818;28;20200;-78
2022/03/01 03:48:06;;;;;;;3.67;3.37;;;;;;;4.05;56.37;95160.59;5072923;28;20269;-75
2022/03/01 03:50:33;;;;;;;4.63;4.00;;;;;;;4.05;56.21;95167.38;5072616;28;20206;-75
2022/03/01 03:53:00;;;;;;;3.80;3.50;;;;;;;4.03;56.43;95160.69;5072978;28;20191;-77
2022/03/01 03:55:27;;;;;;;3.53;3.23;;;;;;;4.05;56.43;95162.31;5072846;28;20186;-76
2022/03/01 03:57:54;;;;;;;4.50;3.80;;;;;;;4.03;56.27;95157.34;5072904;28;20190;-77
2022/03/01 04:00:21;;;;;;;4.33;3.93;;;;;;;4.03;56.27;95157.34;5072489;28;20665;-76
2022/03/01 04:02:51;;;;;;;4.53;4.13;;;;;;;3.90;56.56;95138.69;5070371;28;20680;-76
2022/03/01 04:05:19;;;;;;;5.23;4.23;;;;;;;3.99;56.27;95155.88;5072499;28;20210;-76
2022/03/01 04:07:48;;;;;;;4.37;3.80;;;;;;;3.98;56.49;95160.13;5072615;28;20222;-76
2022/03/01 04:10:16;;;;;;;4.60;4.20;;;;;;;3.97;56.40;95158.53;5072477;28;20233;-77
2022/03/01 04:12:43;;;;;;;4.00;3.60;;;;;;;3.89;56.48;95150.53;5072320;28;20190;-76
2022/03/01 04:15:11;;;;;;;4.00;3.70;;;;;;;3.93;56.67;95151.16;5072645;28;20186;-76
2022/03/01 04:17:38;;;;;;;3.90;3.60;;;;;;;3.95;56.60;95152.72;5071780;28;20179;-76
2022/03/01 04:20:06;;;;;;;4.43;3.87;;;;;;;3.88;56.75;95146.34;5071795;28;20657;-75
2022/03/01 04:22:34;;;;;;;4.10;3.70;;;;;;;3.92;56.64;95152.88;5072270;28;20187;-75
2022/03/01 04:25:01;;;;;;;3.83;3.20;;;;;;;3.83;56.68;95140.75;5072347;28;20190;-75
2022/03/01 04:27:28;;;;;;;4.00;3.70;;;;;;;3.89;56.71;95147.19;5070421;28;20202;-75
2022/03/01 04:29:55;;;;;;;3.90;3.43;;;;;;;3.89;56.67;95149.72;5071784;28;20325;-74
2022/03/01 04:32:22;;;;;;;3.70;3.10;;;;;;;3.85;56.76;95155.84;5071096;28;20190;-76
2022/03/01 04:34:48;;;;;;;4.23;3.83;;;;;;;3.81;56.70;95155.22;5071926;28;20190;-76
2022/03/01 04:37:15;;;;;;;6.10;3.77;;;;;;;3.82;57.02;95154.31;5071658;28;20194;-75
2022/03/01 04:39:44;;;;;;;4.33;4.00;;;;;;;3.71;56.89;95142.25;5071921;28;20190;-75
2022/03/01 04:42:11;;;;;;;5.17;4.60;;;;;;;3.78;56.85;95152.84;5071487;28;20199;-77
2022/03/01 04:44:37;;;;;;;5.17;4.23;;;;;;;3.79;56.92;95167.09;5071747;28;20202;-76
2022/03/01 04:47:05;;;;;;;4.27;3.87;;;;;;;3.77;56.89;95166.41;5071727;28;20187;-76
2022/03/01 04:49:33;;;;;;;5.40;4.30;;;;;;;3.74;57.19;95169.09;5071944;28;20218;-76
2022/03/01 04:51:59;;;;;;;6.27;4.70;;;;;;;3.72;57.43;95166.66;5070469;28;20240;-75
2022/03/01 04:54:26;;;;;;;4.67;4.23;;;;;;;3.42;57.21;95122.81;5071535;28;20573;-77
2022/03/01 04:56:55;;;;;;;5.30;4.30;;;;;;;3.73;57.19;95168.28;5071245;28;20201;-76
2022/03/01 04:59:22;;;;;;;4.77;4.23;;;;;;;3.72;57.14;95171.72;5071290;28;20673;-75
2022/03/01 05:01:49;;;;;;;4.73;4.33;;;;;;;3.55;57.34;95145.72;5071353;28;20223;-76
2022/03/01 05:04:16;;;;;;;4.73;4.23;;;;;;;3.71;57.33;95171.78;5071048;28;20194;-77
2022/03/01 05:06:42;;;;;;;5.17;4.40;;;;;;;3.40;57.39;95124.59;5071464;28;20226;-75
2022/03/01 05:09:09;;;;;;;5.27;4.77;;;;;;;3.44;57.58;95136.19;5071237;28;20222;-77
2022/03/01 05:11:36;;;;;;;5.73;4.60;;;;;;;3.53;57.65;95149.13;5071477;28;20642;-75
2022/03/01 05:14:05;;;;;;;6.80;5.30;;;;;;;3.68;57.58;95180.38;5071028;28;20537;-75
2022/03/01 05:16:32;;;;;;;5.77;5.00;;;;;;;3.62;57.84;95159.63;5071198;28;20202;-77
2022/03/01 05:18:59;;;;;;;7.33;5.10;;;;;;;3.50;57.49;95145.97;5069959;28;20198;-77
2022/03/01 05:21:26;;;;;;;7.47;4.90;;;;;;;3.71;57.60;95179.38;5071077;28;20542;-75
2022/03/01 05:23:53;;;;;;;7.77;5.93;;;;;;;3.72;57.55;95184.34;5070721;28;20194;-75
2022/03/01 05:26:20;;;;;;;9.63;6.43;;;;;;;3.73;57.63;95177.56;5062480;28;20676;-77
2022/03/01 05:28:46;;;;;;;8.33;6.63;;;;;;;3.76;57.74;95180.75;5070624;28;20283;-74
2022/03/01 05:31:15;;;;;;;8.90;5.57;;;;;;;3.82;57.45;95181.31;5059524;28;20670;-75
2022/03/01 05:33:41;;;;;;;7.77;5.70;;;;;;;3.72;57.43;95155.72;5055813;28;20190;-76
2022/03/01 05:36:09;;;;;;;6.37;5.50;;;;;;;3.82;57.44;95172.00;5076417;28;20213;-77
2022/03/01 05:38:36;;;;;;;10.30;6.07;;;;;;;3.94;57.36;95186.50;5073198;28;20182;-76
2022/03/01 05:41:05;;;;;;;8.27;5.73;;;;;;;3.97;57.47;95185.50;5071692;28;20190;-75
2022/03/01 05:43:32;;;;;;;9.50;6.50;;;;;;;4.00;57.17;95183.63;5068593;28;20193;-77
2022/03/01 05:45:59;;;;;;;7.80;6.10;;;;;;;4.09;57.15;95192.41;5068410;28;20197;-74
2022/03/01 05:48:28;;;;;;;6.87;5.63;;;;;;;4.13;56.89;95181.22;5068847;28;20182;-74
2022/03/01 05:50:55;;;;;;;9.57;5.67;;;;;;;3.90;56.79;95131.13;5068438;28;20253;-81
2022/03/01 05:53:22;;;;;;;7.33;5.40;;;;;;;4.28;56.52;95170.25;5068096;28;20198;-76
2022/03/01 05:55:49;;;;;;;13.73;5.97;;;;;;;4.57;56.30;95193.06;5067204;28;20178;-77
2022/03/01 05:58:16;;;;;;;6.53;5.73;;;;;;;4.62;55.89;95185.19;5067634;28;20190;-77
2022/03/01 06:00:42;;;;;;;6.57;4.93;;;;;;;4.69;55.83;95177.13;5067376;28;20264;-78
2022/03/01 06:03:09;;;;;;;6.80;5.37;;;;;;;5.02;55.50;95206.47;5068168;28;20182;-80
2022/03/01 06:05:57;;;;;;;7.67;4.93;;;;;;;4.26;55.18;95057.31;5068953;28;20650;-75
2022/03/01 06:08:24;;;;;;;9.40;5.83;;;;;;;5.28;55.03;95213.31;5068891;28;20202;-81
2022/03/01 06:10:51;;;;;;;6.90;5.17;;;;;;;5.43;54.93;95213.28;5067532;28;20256;-76
2022/03/01 06:13:18;;;;;;;9.20;4.83;;;;;;;5.53;54.74;95212.66;5067990;28;20972;-81
2022/03/01 06:15:45;;;;;;;6.07;4.40;;;;;;;5.61;54.67;95206.25;5068058;28;20209;-77
2022/03/01 06:18:12;;;;;;;6.43;5.20;;;;;;;5.89;53.91;95201.09;5067544;28;20192;-80
2022/03/01 06:20:40;;;;;;;3.73;2.97;;;;;;;6.69;100.00;95213.75;5067370;28;20639;-77
2022/03/01 06:23:07;;;;;;;4.23;3.77;;;;;;;7.99;100.00;95215.03;5067494;28;20646;-76
2022/03/01 06:25:34;;;;;;;4.97;4.27;;;;;;;8.92;98.02;95218.44;5065264;28;20674;-81
2022/03/01 06:28:01;;;;;;;4.43;4.03;;;;;;;9.65;91.46;95213.78;5067778;28;20191;-77
2022/03/01 06:30:28;;;;;;;5.30;4.80;;;;;;;10.35;83.10;95215.06;5066468;28;20213;-80
2022/03/01 06:32:55;;;;;;;4.87;4.30;;;;;;;10.73;73.80;95173.59;5067601;28;20576;-77
2022/03/01 06:35:22;;;;;;;4.50;4.10;;;;;;;11.63;67.20;95212.06;5067980;28;20186;-78
2022/03/01 06:37:50;;;;;;;9.43;4.53;;;;;;;12.16;63.05;95214.34;5067615;28;20194;-77
2022/03/01 06:40:18;;;;;;;5.17;4.37;;;;;;;12.74;58.90;95214.31;5067870;28;20198;-78
2022/03/01 06:42:47;;;;;;;5.27;4.43;;;;;;;13.35;55.36;95213.06;5067283;28;20217;-76
2022/03/01 06:45:14;;;;;;;5.20;4.63;;;;;;;14.00;52.65;95207.84;5071546;28;20186;-75
2022/03/01 06:47:41;;;;;;;4.10;3.40;;;;;;;14.65;50.43;95213.59;5071861;28;20268;-78
2022/03/01 06:50:10;;;;;;;5.27;4.03;;;;;;;15.03;48.34;95175.53;5071732;28;20210;-75
2022/03/01 06:52:37;;;;;;;3.53;3.23;;;;;;;15.88;46.24;95206.50;5071681;28;20209;-77
2022/03/01 06:55:07;;;;;;;3.57;3.17;;;;;;;16.47;44.77;95218.34;5071338;28;20248;-76
2022/03/01 06:57:34;;;;;;;3.40;3.10;;;;;;;16.96;43.79;95204.63;5071331;28;20735;-80
2022/03/01 07:00:01;;;;;;;4.10;3.37;;;;;;;17.45;42.48;95215.66;5072021;28;20190;-81
2022/03/01 07:02:28;;;;;;;3.90;3.27;;;;;;;17.93;41.08;95213.06;5071334;28;20190;-76
2022/03/01 07:04:55;;;;;;;3.73;3.43;;;;;;;18.40;40.13;95217.31;5071525;28;20214;-76
2022/03/01 07:07:23;;;;;;;3.57;3.07;;;;;;;18.81;38.92;95210.03;5071719;28;20218;-79
2022/03/01 07:09:50;;;;;;;3.53;3.23;;;;;;;19.29;37.97;95223.50;5071012;28;20609;-76
2022/03/01 07:12:18;;;;;;;3.40;2.93;;;;;;;19.67;36.93;95219.03;5071558;28;20194;-78
2022/03/01 07:14:47;;;;;;;3.50;2.93;;;;;;;19.98;35.86;95218.00;5072320;28;20195;-80
2022/03/01 07:17:14;;;;;;;4.33;3.30;;;;;;;20.25;35.21;95219.09;5071176;28;20284;-78
2022/03/01 07:19:40;;;;;;;3.63;2.93;;;;;;;20.38;34.58;95205.41;5070914;28;20197;-79
2022/03/01 07:22:07;;;;;;;3.87;3.30;;;;;;;20.69;33.66;95218.94;5073787;28;20190;-78
2022/03/01 07:24:34;;;;;;;5.00;2.93;;;;;;;20.93;33.49;95229.94;5073054;28;20186;-83
2022/03/01 07:27:01;;;;;;;2.77;2.57;;;;;;;21.15;33.17;95221.06;5073537;28;20749;-82
2022/03/01 07:29:30;;;;;;;4.67;4.10;;;;;;;21.42;33.27;95227.31;5072963;28;20608;-76
2022/03/01 07:31:57;;;;;;;4.43;4.00;;;;;;;21.71;33.04;95223.63;5073712;28;20189;-77
2022/03/01 07:34:24;;;;;;;3.97;3.58;;;;;;;21.98;32.44;95223.75;5073771;28;20187;-79
2022/03/01 07:36:51;;;;;;;3.92;3.58;;;;;;;22.24;32.38;95225.66;5073443;28;20198;-79
2022/03/01 07:39:18;;;;;;;3.60;3.30;;;;;;;22.49;31.90;95224.09;5072774;28;20186;-76
2022/03/01 07:41:44;;;;;;;3.40;3.10;;;;;;;22.70;31.19;95228.34;5073248;28;20201;-76
2022/03/01 07:44:11;;;;;;;3.40;3.10;;;;;;;22.91;31.29;95218.75;5072025;28;20871;-75
2022/03/01 07:46:39;;;;;;;3.17;2.88;;;;;;;23.10;30.89;95219.72;5072655;28;20190;-79
2022/03/01 07:49:07;;;;;;;3.45;3.15;;;;;;;23.28;30.90;95223.34;5072943;28;20661;-76
2022/03/01 07:51:34;;;;;;;3.25;2.95;;;;;;;23.37;29.97;95199.63;5072614;28;20650;-77
2022/03/01 07:54:01;;;;;;;4.25;3.17;;;;;;;23.58;29.63;95211.63;5072939;28;20197;-77
2022/03/01 07:56:27;;;;;;;3.85;3.50;;;;;;;23.65;29.39;95207.19;5071586;28;20255;-77
2022/03/01 07:58:54;;;;;;;2.95;2.75;;;;;;;23.78;29.07;95218.38;5072612;28;20573;-75
2022/03/01 08:01:22;;;;;;;4.22;2.85;;;;;;;23.87;28.59;95215.56;5072418;28;20192;-78
2022/03/01 08:03:50;;;;;;;3.08;2.85;;;;;;;23.73;28.69;95184.25;5072669;28;20916;-77
2022/03/01 08:06:18;;;;;;;3.75;2.85;;;;;;;23.95;28.12;95216.13;5072719;28;20291;-79
2022/03/01 08:08:45;;;;;;;3.17;2.88;;;;;;;23.99;28.11;95219.13;5072283;28;20182;-77
2022/03/01 08:11:12;;;;;;;3.15;2.95;;;;;;;24.00;28.39;95216.28;5071477;28;20218;-76
2022/03/01 08:13:39;;;;;;;3.35;2.88;;;;;;;24.01;28.24;95217.13;5072819;28;20519;-79
2022/03/01 08:16:06;;;;;;;3.05;2.80;;;;;;;24.02;27.37;95224.75;5072645;28;20194;-77
2022/03/01 08:18:33;;;;;;;3.00;2.70;;;;;;;24.04;27.85;95221.91;5073143;28;20615;-77
2022/03/01 08:21:02;;;;;;;3.00;2.80;;;;;;;24.04;27.47;95227.13;5073031;28;20564;-79
2022/03/01 08:23:31;;;;;;;2.90;2.70;;;;;;;24.02;27.13;95226.56;5072789;28;20178;-79
2022/03/01 08:25:59;;;;;;;2.97;2.78;;;;;;;23.97;26.96;95221.94;5072657;28;20187;-77
2022/03/01 08:28:26;;;;;;;3.38;2.85;;;;;;;24.02;27.15;95229.16;5072186;28;20191;-76
2022/03/01 08:30:54;;;;;;;3.58;3.25;;;;;;;23.93;27.14;95220.75;5072384;28;20233;-78
2022/03/01 08:33:21;;;;;;;3.60;3.30;;;;;;;23.88;27.05;95233.66;5071878;28;20278;-78
2022/03/01 08:35:49;;;;;;;5.85;4.10;;;;;;;23.76;26.57;95237.91;5071808;28;20232;-78
2022/03/01 08:38:18;;;;;;;4.28;3.42;;;;;;;23.55;26.66;95225.88;5071883;28;20233;-77
2022/03/01 08:40:45;;;;;;;5.10;3.97;;;;;;;23.42;26.48;95237.16;5071905;28;20202;-76
2022/03/01 08:43:13;;;;;;;3.33;2.97;;;;;;;23.23;26.36;95241.41;5071551;28;20190;-80
2022/03/01 08:45:40;;;;;;;3.90;3.50;;;;;;;23.02;26.70;95239.03;5071737;28;20213;-78
2022/03/01 08:48:07;;;;;;;3.65;3.35;;;;;;;22.58;26.85;95209.06;5071302;28;20206;-76
2022/03/01 08:50:35;;;;;;;3.83;3.45;;;;;;;22.42;27.00;95227.72;5071735;28;20249;-78
2022/03/01 08:53:03;;;;;;;3.65;3.35;;;;;;;22.26;26.84;95229.66;5071577;28;20195;-78
2022/03/01 08:55:32;;;;;;;8.35;3.80;;;;;;;22.02;27.23;95231.00;5071538;28;20178;-77
2022/03/01 08:57:59;;;;;;;4.05;3.67;;;;;;;21.64;27.35;95216.81;5071399;28;20194;-78
2022/03/01 09:00:27;;;;;;;3.47;3.17;;;;;;;21.45;27.27;95226.09;5069386;28;20220;-77
2022/03/01 09:02:54;;;;;;;4.40;3.70;;;;;;;21.17;27.34;95236.50;5071431;28;20186;-76
2022/03/01 09:05:21;;;;;;;4.43;3.30;;;;;;;20.91;27.58;95231.94;5071136;28;20202;-76
2022/03/01 09:07:48;;;;;;;3.43;3.13;;;;;;;20.69;27.63;95225.94;5070957;28;20225;-79
2022/03/01 09:10:20;;;;;;;3.60;3.30;;;;;;;20.41;27.88;95220.66;5070485;28;20210;-76
2022/03/01 09:12:49;;;;;;;4.87;3.30;;;;;;;20.21;27.99;95234.25;5069491;28;20282;-77
2022/03/01 09:15:17;;;;;;;3.97;3.57;;;;;;;19.92;27.96;95231.72;5070287;28;20198;-76
2022/03/01 09:17:46;;;;;;;4.20;3.23;;;;;;;19.72;28.05;95240.06;5071361;28;20185;-78
2022/03/01 09:20:24;;;;;;;3.70;3.30;;;;;;;19.43;28.46;95222.72;5070934;28;20193;-78
2022/03/01 09:22:51;;;;;;;4.57;3.53;;;;;;;19.33;28.58;95248.09;5067317;28;20305;-77
2022/03/01 09:25:17;;;;;;;4.60;3.30;;;;;;;19.16;28.77;95238.88;5062497;28;20251;-79
2022/03/01 09:27:44;;;;;;;3.50;3.20;;;;;;;18.91;28.95;95233.09;5070796;28;20818;-78
2022/03/01 09:30:14;;;;;;;3.73;3.37;;;;;;;18.82;29.01;95240.13;5074076;28;20219;-75
2022/03/01 09:32:41;;;;;;;3.70;3.40;;;;;;;18.65;29.13;95236.88;5066161;28;20195;-76
2022/03/01 09:35:08;;;;;;;4.00;3.60;;;;;;;18.50;29.34;95238.59;5049779;28;20191;-80
2022/03/01 09:37:35;;;;;;;3.67;3.30;;;;;;;18.35;29.47;95240.28;5054548;28;20202;-79
2022/03/01 09:40:05;;;;;;;4.60;3.03;;;;;;;18.20;29.71;95235.06;5060352;28;20198;-78
2022/03/01 09:42:33;;;;;;;3.37;3.07;;;;;;;17.85;29.93;95202.75;5065879;28;20240;-78
2022/03/01 09:45:00;;;;;;;5.10;3.80;;;;;;;17.93;30.01;95237.16;5062404;28;20656;-78
2022/03/01 09:47:28;;;;;;;3.90;3.57;;;;;;;17.77;29.94;95235.44;5067764;28;20190;-78
2022/03/01 09:49:55;;;;;;;4.77;3.30;;;;;;;17.62;30.00;95218.19;5062333;28;20698;-78
2022/03/01 09:52:22;;;;;;;3.57;3.27;;;;;;;17.61;30.22;95240.63;5068281;28;20205;-79
2022/03/01 09:54:51;;;;;;;3.83;3.43;;;;;;;17.46;30.25;95229.41;5063808;28;20681;-78
2022/03/01 09:57:20;;;;;;;4.57;3.50;;;;;;;17.16;30.48;95221.38;5064403;28;20186;-77
2022/03/01 09:59:47;;;;;;;4.47;3.87;;;;;;;17.10;30.62;95237.56;5054529;28;20198;-77
2022/03/01 10:02:14;;;;;;;4.10;3.43;;;;;;;16.92;30.75;95234.34;5062730;28;20191;-78
2022/03/01 10:04:52;;;;;;;3.73;3.43;;;;;;;16.75;30.93;95234.38;5065440;28;20182;-80
2022/03/01 10:07:23;;;;;;;4.07;3.67;;;;;;;16.64;31.42;95226.09;5058833;28;20237;-79
2022/03/01 10:09:50;;;;;;;6.60;4.30;;;;;;;16.21;31.62;95182.38;5069353;28;20232;-78
2022/03/01 10:12:23;;;;;;;10.47;4.20;;;;;;;16.46;31.44;95234.00;5059770;28;20238;-77
2022/03/01 10:14:58;;;;;;;4.37;3.73;;;;;;;16.37;32.06;95227.22;5066181;28;20857;-79
2022/03/01 10:17:25;;;;;;;8.33;4.30;;;;;;;16.28;31.81;95224.63;5061844;28;20194;-78
2022/03/01 10:20:03;;;;;;;4.43;3.70;;;;;;;15.92;31.88;95185.38;5055099;28;20182;-78
2022/03/01 10:22:30;;;;;;;3.93;3.47;;;;;;;15.67;31.73;95158.75;5064318;28;20186;-80
2022/03/01 10:25:05;;;;;;;4.17;3.63;;;;;;;15.91;31.76;95221.66;5057585;28;20194;-79
2022/03/01 10:27:33;;;;;;;3.77;3.30;;;;;;;15.73;31.76;95212.25;5063007;28;20182;-78
2022/03/01 10:30:00;;;;;;;6.27;3.43;;;;;;;15.54;31.96;95212.47;5059542;28;20245;-79
2022/03/01 10:32:26;;;;;;;4.40;4.00;;;;;;;15.33;32.00;95212.88;5060298;28;20194;-79
2022/03/01 10:35:03;;;;;;;4.03;3.43;;;;;;;15.11;32.20;95215.97;5063326;28;20183;-80
2022/03/01 10:37:32;;;;;;;3.83;3.53;;;;;;;14.87;32.47;95206.34;5065963;28;20185;-78
2022/03/01 10:40:14;;;;;;;3.70;3.40;;;;;;;14.50;32.81;95171.31;5063911;28;20201;-79
2022/03/01 10:42:41;;;;;;;11.63;4.43;;;;;;;14.55;32.92;95210.31;5061455;28;20288;-79
2022/03/01 10:45:10;;;;;;;4.20;3.80;;;;;;;14.41;33.17;95210.78;5063113;28;20697;-79
2022/03/01 10:47:37;;;;;;;5.10;3.23;;;;;;;14.22;33.49;95178.31;5066268;28;20578;-80
2022/03/01 10:50:07;;;;;;;4.10;3.80;;;;;;;14.28;33.76;95193.94;5061080;28;20187;-79
2022/03/01 10:52:36;;;;;;;6.70;4.50;;;;;;;13.85;33.74;95119.31;5064315;28;20193;-81
2022/03/01 10:55:04;;;;;;;5.23;3.90;;;;;;;14.12;34.08;95168.09;5068555;28;20190;-78
2022/03/01 10:57:31;;;;;;;6.67;4.67;;;;;;;13.85;34.37;95127.81;5060476;28;20198;-79
2022/03/01 10:59:58;;;;;;;4.70;4.30;;;;;;;14.26;34.70;95189.94;5060313;28;20195;-78
2022/03/01 11:02:25;;;;;;;5.43;4.57;;;;;;;14.29;34.71;95184.47;5060711;28;20199;-81
2022/03/01 11:04:53;;;;;;;5.30;4.80;;;;;;;14.12;35.00;95141.56;5064627;28;20202;-79
2022/03/01 11:07:21;;;;;;;5.93;5.23;;;;;;;14.46;34.97;95175.91;5059816;28;20597;-79
2022/03/01 11:09:48;;;;;;;8.17;5.30;;;;;;;14.55;34.88;95177.66;5061989;28;20692;-78
2022/03/01 11:12:21;;;;;;;7.00;5.20;;;;;;;14.37;34.99;95127.13;5062188;28;20231;-79
2022/03/01 11:15:02;;;;;;;5.60;5.00;;;;;;;14.82;34.93;95169.94;5067623;28;20190;-79
2022/03/01 11:17:39;;;;;;;8.57;4.97;;;;;;;14.58;34.86;95130.19;5062283;28;20183;-80
2022/03/01 11:20:11;;;;;;;6.30;5.27;;;;;;;14.74;34.88;95156.03;5061966;28;20205;-77
2022/03/01 11:22:44;;;;;;;6.70;5.30;;;;;;;14.60;34.91;95137.78;5052431;28;20643;-79
2022/03/01 11:25:22;;;;;;;7.53;4.80;;;;;;;14.65;34.81;95163.88;5064171;28;20195;-77
2022/03/01 11:27:51;;;;;;;6.37;4.37;;;;;;;14.29;35.10;95115.84;5062041;28;20190;-78
2022/03/01 11:30:25;;;;;;;4.77;4.23;;;;;;;14.41;35.05;95154.16;5065483;28;20638;-78
2022/03/01 11:32:56;;;;;;;5.17;4.67;;;;;;;14.21;35.24;95136.34;5063497;28;20195;-78
2022/03/01 11:35:24;;;;;;;5.60;4.77;;;;;;;14.20;35.15;95151.91;5062998;28;20194;-77
2022/03/01 11:38:02;;;;;;;4.90;4.30;;;;;;;14.05;35.16;95152.44;5065226;28;20187;-78
2022/03/01 11:40:32;;;;;;;4.47;4.07;;;;;;;13.93;35.24;95155.38;5062359;28;20192;-76
2022/03/01 11:43:08;;;;;;;4.47;4.07;;;;;;;13.80;35.43;95142.88;5067828;28;20190;-77